メインページ
METAR-TAF:

METAR-TAF

空港 :

ハルツーム, スーダン

ハルツーム国際空港

緯度: 15-36N, 経度: 032-33E, 海抜: 382m

現時点の気象観測

当レポートは27分前の23:30(UTC)に作成
の風 11kt
気温 29°C
湿度 16%
気圧 1009 hPa
視程10km以上
1,500メートル以下は雲なし、積乱雲なし

METAR: HSSS 242330Z 01011KT CAVOK 29/01 Q1009 NOSIG

時間: 02:57 (23:57 UTC)

予報

当レポートは57分前の23:00(UTC)に作成
予報は25日の 00時(UTC)から 26日の 06時(UTC)まで有効
の風 10kt、最大20ktの突風を伴う
視程10km以上
1,500メートル以下は雲なし、積乱雲なし
25日の 04時(UTC)から 25日の 08時(UTC)まで一時的に
視程: 6000m

TAF: HSSS 242300Z 2500/2606 36010G20KT CAVOK TEMPO 2504/2508 6000 NSC

4,000以上の空港の気象観測と天気予報(METAR報とTAF報)

利用可能な観測所は地図上に黄色い丸と赤い丸で示す。

丸の上にカーソルを重ねると観測所名を参照できる。

次にクリックすると気象観測と天気予報を参照できる。

マップの切り替え:黒色「×」印の緑ボタンをクリックして拡大、「-」印の緑ボタンをクリックして縮小、緑色の三角印をクリックして隣りの地図に切り替え


METAR-TAF: